Time;durP1;ratioP1;P1;durP2;ratioP2;P2;SDS_P1;SDS_P2;PMS_P1;PMS_P2;Temp;Humidity;BMP_temperature;BMP_pressure;BME280_temperature;BME280_humidity;BME280_pressure;Samples;Min_cycle;Max_cycle;Signal;HPM_P1;HPM_P2
2023/04/20 00:00:31;;;;;;;0.50;0.50;;;;;;;13.01;100.00;99005.16;5030567;28;20201;-66
2023/04/20 00:03:00;;;;;;;0.60;0.60;;;;;;;12.96;100.00;99001.09;5032290;28;20209;-66
2023/04/20 00:05:26;;;;;;;0.60;0.60;;;;;;;12.94;100.00;98998.63;5022573;28;20287;-66
2023/04/20 00:07:53;;;;;;;0.50;0.50;;;;;;;12.94;100.00;98995.22;5031642;28;20752;-66
2023/04/20 00:10:20;;;;;;;0.40;0.40;;;;;;;12.89;100.00;98989.44;5032105;28;20737;-66
2023/04/20 00:12:59;;;;;;;0.43;0.43;;;;;;;12.87;100.00;98991.25;5031856;28;20665;-65
2023/04/20 00:15:26;;;;;;;0.60;0.60;;;;;;;12.87;100.00;98996.38;5031584;28;20196;-66
2023/04/20 00:17:53;;;;;;;0.50;0.50;;;;;;;12.85;100.00;98988.75;5032203;28;20194;-66
2023/04/20 00:20:21;;;;;;;0.50;0.50;;;;;;;12.83;100.00;98989.72;5031478;28;20243;-66
2023/04/20 00:22:48;;;;;;;0.50;0.50;;;;;;;12.76;100.00;98973.75;5031843;28;20201;-66
2023/04/20 00:25:15;;;;;;;0.50;0.50;;;;;;;12.78;100.00;98987.34;5031328;28;20674;-66
2023/04/20 00:27:41;;;;;;;0.60;0.60;;;;;;;12.78;100.00;98981.38;5031772;28;20656;-66
2023/04/20 00:30:10;;;;;;;0.50;0.50;;;;;;;12.71;100.00;98977.41;5031568;28;20205;-66
2023/04/20 00:32:37;;;;;;;0.43;0.43;;;;;;;12.68;100.00;98977.56;5031615;28;20236;-66
2023/04/20 00:35:04;;;;;;;0.50;0.50;;;;;;;12.61;100.00;98982.13;5031662;28;20212;-66
2023/04/20 00:37:32;;;;;;;0.50;0.50;;;;;;;12.52;100.00;98975.69;5030006;28;20197;-66
2023/04/20 00:39:59;;;;;;;0.50;0.50;;;;;;;12.45;100.00;98982.00;5031399;28;20197;-66
2023/04/20 00:42:25;;;;;;;0.40;0.40;;;;;;;12.38;100.00;98975.44;5031129;28;20205;-65
2023/04/20 00:44:52;;;;;;;0.30;0.30;;;;;;;12.27;100.00;98980.25;5030788;28;20201;-66
2023/04/20 00:47:19;;;;;;;0.40;0.40;;;;;;;12.24;100.00;98976.97;5031041;28;20213;-66
2023/04/20 00:49:46;;;;;;;0.60;0.60;;;;;;;12.17;100.00;98978.97;5031066;28;20320;-66
2023/04/20 00:52:12;;;;;;;0.60;0.60;;;;;;;12.16;100.00;98979.84;5030975;28;20252;-66
2023/04/20 00:54:41;;;;;;;0.43;0.43;;;;;;;12.01;100.00;98970.25;5030886;28;20201;-65
2023/04/20 00:57:08;;;;;;;0.57;0.57;;;;;;;12.02;100.00;98984.75;5030959;28;20771;-65
2023/04/20 00:59:34;;;;;;;0.50;0.50;;;;;;;11.93;100.00;98970.56;5030968;28;20678;-65
2023/04/20 01:02:01;;;;;;;0.60;0.60;;;;;;;11.82;100.00;98974.50;5030849;28;20202;-66
2023/04/20 01:04:29;;;;;;;0.77;0.77;;;;;;;11.74;100.00;98968.84;5030747;28;20208;-66
2023/04/20 01:06:56;;;;;;;0.57;0.57;;;;;;;11.67;100.00;98962.25;5031132;28;20213;-66
2023/04/20 01:09:23;;;;;;;0.57;0.57;;;;;;;11.63;100.00;98971.00;5030664;28;20205;-66
2023/04/20 01:11:51;;;;;;;0.43;0.43;;;;;;;11.60;100.00;98970.19;5030474;28;20201;-65
2023/04/20 01:14:18;;;;;;;0.60;0.60;;;;;;;11.62;100.00;98970.16;5030743;28;20198;-65
2023/04/20 01:16:46;;;;;;;0.50;0.50;;;;;;;11.60;100.00;98965.06;5030466;28;20206;-66
2023/04/20 01:19:13;;;;;;;0.50;0.50;;;;;;;11.58;100.00;98969.44;5030430;28;20197;-65
2023/04/20 01:21:40;;;;;;;0.33;0.33;;;;;;;11.43;100.00;98956.41;5030621;28;20201;-66
2023/04/20 01:24:09;;;;;;;0.70;0.70;;;;;;;11.42;100.00;98953.00;5030481;28;20201;-66
2023/04/20 01:26:35;;;;;;;0.40;0.40;;;;;;;11.47;100.00;98961.34;5032990;28;20312;-66
2023/04/20 01:29:02;;;;;;;0.40;0.40;;;;;;;11.46;100.00;98967.38;5034279;28;20589;-66
2023/04/20 01:31:29;;;;;;;0.70;0.70;;;;;;;11.42;100.00;98963.25;5034082;28;20197;-66
2023/04/20 01:33:56;;;;;;;0.60;0.60;;;;;;;11.36;100.00;98963.50;5034174;28;20194;-66
2023/04/20 01:36:22;;;;;;;0.50;0.50;;;;;;;11.11;100.00;98932.03;5034265;28;20201;-65
2023/04/20 01:38:49;;;;;;;0.40;0.40;;;;;;;11.20;100.00;98967.59;5034719;28;20202;-66
2023/04/20 01:41:18;;;;;;;0.50;0.50;;;;;;;11.15;100.00;98959.22;5034510;28;20227;-66
2023/04/20 01:43:44;;;;;;;1.10;1.10;;;;;;;10.87;100.00;98921.00;5034249;28;20198;-66
2023/04/20 01:46:11;;;;;;;0.40;0.40;;;;;;;11.06;100.00;98954.47;5034513;28;20205;-66
2023/04/20 01:48:38;;;;;;;0.40;0.40;;;;;;;11.10;100.00;98966.28;5033938;28;20275;-66
2023/04/20 01:51:05;;;;;;;0.70;0.70;;;;;;;10.95;100.00;98936.91;5034038;28;20236;-66
2023/04/20 01:53:31;;;;;;;0.40;0.40;;;;;;;11.07;100.00;98958.69;5034198;28;20612;-65
2023/04/20 01:55:59;;;;;;;0.50;0.50;;;;;;;11.05;100.00;98968.16;5034072;28;20201;-66
2023/04/20 01:58:28;;;;;;;0.40;0.40;;;;;;;11.05;100.00;98968.16;5034015;28;20193;-66
2023/04/20 02:00:54;;;;;;;0.50;0.50;;;;;;;11.06;100.00;98957.03;5033821;28;20245;-66
2023/04/20 02:03:21;;;;;;;0.43;0.43;;;;;;;10.99;100.00;98960.72;5033610;28;20201;-66
2023/04/20 02:05:48;;;;;;;0.43;0.43;;;;;;;10.93;100.00;98955.81;5033911;28;20221;-66
2023/04/20 02:08:15;;;;;;;0.50;0.50;;;;;;;10.95;100.00;98957.44;5023873;28;20225;-65
2023/04/20 02:10:41;;;;;;;0.33;0.33;;;;;;;10.97;100.00;98952.25;5028202;28;20201;-66
2023/04/20 02:13:08;;;;;;;0.60;0.60;;;;;;;10.90;100.00;98948.25;5026786;28;20198;-66
2023/04/20 02:15:36;;;;;;;0.50;0.50;;;;;;;10.84;100.00;98953.63;5029067;28;20202;-66
2023/04/20 02:18:03;;;;;;;0.50;0.50;;;;;;;10.82;100.00;98947.72;5016961;28;20201;-66
2023/04/20 02:20:30;;;;;;;0.50;0.50;;;;;;;10.82;100.00;98955.41;5021172;28;20220;-66
2023/04/20 02:22:57;;;;;;;0.50;0.50;;;;;;;10.80;100.00;98946.94;5018960;28;20562;-66
2023/04/20 02:25:24;;;;;;;0.70;0.70;;;;;;;10.80;100.00;98957.19;5032106;28;20229;-66
2023/04/20 02:27:50;;;;;;;0.50;0.50;;;;;;;10.80;100.00;98962.31;5027830;28;20217;-66
2023/04/20 02:30:17;;;;;;;0.77;0.77;;;;;;;10.81;100.00;98954.59;5016010;28;20301;-66
2023/04/20 02:32:45;;;;;;;0.60;0.60;;;;;;;10.81;100.00;98956.31;5023307;28;20202;-66
2023/04/20 02:35:12;;;;;;;0.57;0.57;;;;;;;10.82;100.00;98965.69;5017287;28;20629;-66
2023/04/20 02:37:39;;;;;;;0.93;0.93;;;;;;;10.84;100.00;98958.75;5031696;28;20197;-66
2023/04/20 02:40:07;;;;;;;0.40;0.40;;;;;;;10.84;100.00;98969.00;5031194;28;20209;-66
2023/04/20 02:42:34;;;;;;;1.80;0.77;;;;;;;10.84;100.00;98963.88;5025229;28;20288;-66
2023/04/20 02:45:01;;;;;;;0.60;0.60;;;;;;;10.84;100.00;98963.88;5030779;28;20636;-66
2023/04/20 02:47:27;;;;;;;0.50;0.50;;;;;;;10.77;100.00;98947.06;5022802;28;20221;-66
2023/04/20 02:49:56;;;;;;;0.40;0.40;;;;;;;10.84;100.00;98963.88;5024844;28;20205;-66
2023/04/20 02:52:23;;;;;;;0.50;0.50;;;;;;;10.81;100.00;98971.69;5019944;28;20201;-66
2023/04/20 02:54:49;;;;;;;0.50;0.50;;;;;;;10.83;100.00;98978.41;5026295;28;20556;-65
2023/04/20 02:57:18;;;;;;;0.67;0.67;;;;;;;10.89;100.00;98974.78;5024647;28;20251;-65
2023/04/20 02:59:45;;;;;;;0.50;0.50;;;;;;;10.91;100.00;98971.28;5026662;28;20267;-66
2023/04/20 03:02:11;;;;;;;0.47;0.47;;;;;;;10.90;100.00;98968.75;5023727;28;20202;-66
2023/04/20 03:04:39;;;;;;;0.50;0.50;;;;;;;10.90;100.00;98971.34;5025401;28;20212;-66
2023/04/20 03:07:08;;;;;;;0.50;0.50;;;;;;;10.96;100.00;98973.66;5029736;28;20303;-66
2023/04/20 03:09:35;;;;;;;0.50;0.50;;;;;;;11.00;100.00;98976.06;5027150;28;20193;-66
2023/04/20 03:12:02;;;;;;;0.70;0.70;;;;;;;11.05;100.00;98973.28;5022717;28;20240;-66
2023/04/20 03:14:29;;;;;;;0.63;0.63;;;;;;;11.05;100.00;98976.69;5025977;28;20236;-66
2023/04/20 03:16:55;;;;;;;0.50;0.50;;;;;;;11.08;100.00;98970.63;5028071;28;20205;-66
2023/04/20 03:19:22;;;;;;;0.63;0.63;;;;;;;11.02;100.00;98969.13;5024848;28;20288;-66
2023/04/20 03:21:49;;;;;;;0.50;0.50;;;;;;;11.01;100.00;98976.91;5014639;28;20244;-66
2023/04/20 03:24:18;;;;;;;0.43;0.43;;;;;;;11.03;100.00;98964.84;5013780;28;20195;-66
2023/04/20 03:26:44;;;;;;;0.40;0.40;;;;;;;11.06;100.00;98962.16;5020107;28;20214;-66
2023/04/20 03:29:11;;;;;;;0.50;0.50;;;;;;;11.06;100.00;98967.28;5028490;28;20228;-66
2023/04/20 03:31:38;;;;;;;0.50;0.50;;;;;;;11.08;100.00;98965.50;5015913;28;20653;-66
2023/04/20 03:34:05;;;;;;;0.40;0.40;;;;;;;11.08;100.00;98960.38;5021432;28;20721;-66
2023/04/20 03:36:32;;;;;;;0.60;0.60;;;;;;;11.09;100.00;98964.59;5020663;28;20260;-66
2023/04/20 03:38:59;;;;;;;0.40;0.40;;;;;;;11.12;100.00;98964.47;5028492;28;20320;-66
2023/04/20 03:41:27;;;;;;;0.50;0.50;;;;;;;11.15;100.00;98966.91;5017785;28;20226;-66
2023/04/20 03:43:54;;;;;;;0.40;0.40;;;;;;;11.20;100.00;98965.03;5017522;28;20205;-66
2023/04/20 03:46:20;;;;;;;0.50;0.50;;;;;;;11.23;100.00;98962.34;5021525;28;21784;-66
2023/04/20 03:48:47;;;;;;;0.57;0.57;;;;;;;11.28;100.00;98969.81;5021714;28;20214;-66
2023/04/20 03:51:14;;;;;;;0.60;0.60;;;;;;;11.31;100.00;98965.41;5026827;28;20206;-67
2023/04/20 03:53:40;;;;;;;0.50;0.50;;;;;;;11.27;100.00;98966.44;5023370;28;20197;-65
2023/04/20 03:56:08;;;;;;;0.60;0.60;;;;;;;11.12;100.00;98951.66;5024986;28;20259;-65
2023/04/20 03:58:36;;;;;;;0.50;0.50;;;;;;;11.04;100.00;98966.53;5025988;28;20209;-66
2023/04/20 04:01:03;;;;;;;0.50;0.50;;;;;;;10.99;100.00;98969.25;5026440;28;20670;-65
2023/04/20 04:03:30;;;;;;;0.60;0.60;;;;;;;10.92;100.00;98972.13;5025281;28;20769;-66
2023/04/20 04:05:57;;;;;;;0.57;0.57;;;;;;;10.95;100.00;98977.94;5024073;28;20229;-66
2023/04/20 04:08:24;;;;;;;0.63;0.63;;;;;;;10.90;100.00;98969.59;5023092;28;20309;-66
2023/04/20 04:10:50;;;;;;;0.50;0.50;;;;;;;10.98;100.00;98974.44;5022756;28;20287;-66
2023/04/20 04:13:17;;;;;;;0.70;0.70;;;;;;;10.99;100.00;98978.66;5030874;28;20205;-66
2023/04/20 04:15:49;;;;;;;0.40;0.40;;;;;;;11.04;100.00;98981.91;5026338;28;20209;-66
2023/04/20 04:18:16;;;;;;;0.90;0.90;;;;;;;11.05;100.00;98988.69;5021728;28;20224;-66
2023/04/20 04:20:42;;;;;;;0.50;0.50;;;;;;;11.10;100.00;98984.22;5022364;28;20198;-65
2023/04/20 04:23:09;;;;;;;0.50;0.50;;;;;;;11.08;100.00;98989.41;5018255;28;20205;-66
2023/04/20 04:25:37;;;;;;;0.40;0.40;;;;;;;11.13;100.00;98983.28;5019790;28;20212;-66
2023/04/20 04:28:04;;;;;;;0.50;0.50;;;;;;;11.12;100.00;98995.25;5018863;28;20213;-66
2023/04/20 04:30:31;;;;;;;0.63;0.63;;;;;;;11.19;100.00;98981.31;5019131;28;20206;-66
2023/04/20 04:32:59;;;;;;;0.90;0.90;;;;;;;11.30;100.00;98984.28;5018152;28;20193;-64
2023/04/20 04:35:26;;;;;;;0.47;0.47;;;;;;;11.46;100.00;98980.22;5022821;28;20202;-65
2023/04/20 04:37:53;;;;;;;0.60;0.60;;;;;;;11.63;100.00;98978.69;5023031;28;20193;-66
2023/04/20 04:40:20;;;;;;;0.53;0.53;;;;;;;11.82;100.00;98982.19;5024031;28;20202;-66
2023/04/20 04:42:47;;;;;;;0.50;0.50;;;;;;;11.93;100.00;98969.72;5019888;28;20212;-66
2023/04/20 04:45:15;;;;;;;0.50;0.50;;;;;;;12.21;100.00;98993.38;5019864;28;20656;-66
2023/04/20 04:47:42;;;;;;;0.70;0.70;;;;;;;12.46;100.00;98986.25;5019017;28;20304;-66
2023/04/20 04:50:11;;;;;;;0.70;0.70;;;;;;;12.67;100.00;98994.72;5025281;28;20217;-65
2023/04/20 04:52:38;;;;;;;0.40;0.40;;;;;;;12.93;100.00;98991.78;5025165;28;20206;-66
2023/04/20 04:55:08;;;;;;;0.60;0.60;;;;;;;13.25;100.00;98992.88;5017203;28;20264;-66
2023/04/20 04:57:34;;;;;;;0.50;0.50;;;;;;;13.40;100.00;98989.59;5015443;28;20579;-66
2023/04/20 05:00:03;;;;;;;0.50;0.50;;;;;;;13.54;100.00;98992.34;5019913;28;20270;-66
2023/04/20 05:02:30;;;;;;;0.63;0.63;;;;;;;13.65;100.00;99000.38;5024768;28;20284;-66
2023/04/20 05:04:56;;;;;;;0.43;0.43;;;;;;;13.75;100.00;98997.34;4957578;28;1968262;-66
2023/04/20 05:07:25;;;;;;;0.70;0.70;;;;;;;13.89;100.00;99000.09;5025347;28;20252;-66
2023/04/20 05:09:52;;;;;;;0.60;0.60;;;;;;;14.03;100.00;98997.63;5025546;28;20907;-66
2023/04/20 05:12:19;;;;;;;0.50;0.50;;;;;;;14.19;100.00;99003.69;5021681;28;20213;-66
2023/04/20 05:14:45;;;;;;;0.47;0.47;;;;;;;14.28;100.00;99000.63;5024288;28;20288;-67
2023/04/20 05:17:12;;;;;;;0.63;0.63;;;;;;;14.30;100.00;99006.56;5023601;28;20341;-66
2023/04/20 05:19:39;;;;;;;0.60;0.60;;;;;;;14.20;100.00;99005.34;5023782;28;20212;-67
2023/04/20 05:22:06;;;;;;;0.60;0.60;;;;;;;14.09;100.00;99002.47;5031248;28;20558;-66
2023/04/20 05:24:34;;;;;;;0.47;0.47;;;;;;;13.97;100.00;99003.09;5030001;28;20213;-66
2023/04/20 05:27:02;;;;;;;1.00;1.00;;;;;;;13.98;100.00;99007.34;5027006;28;20213;-68
2023/04/20 05:29:28;;;;;;;0.40;0.40;;;;;;;14.06;100.00;99005.19;5028449;28;20863;-66
2023/04/20 05:31:55;;;;;;;0.57;0.57;;;;;;;14.05;100.00;99003.56;5025222;28;20687;-65
2023/04/20 05:34:22;;;;;;;0.50;0.50;;;;;;;14.07;100.00;99012.03;5022784;28;20206;-67
2023/04/20 05:36:53;;;;;;;0.80;0.80;;;;;;;14.12;100.00;99012.63;5021491;28;20209;-67
2023/04/20 05:39:20;;;;;;;0.37;0.37;;;;;;;14.13;100.00;99009.16;5020841;28;20765;-67
2023/04/20 05:41:48;;;;;;;0.40;0.40;;;;;;;14.12;99.89;99002.31;5027925;28;20215;-67
2023/04/20 05:44:15;;;;;;;0.40;0.40;;;;;;;14.08;98.84;99016.28;5024497;28;20204;-67
2023/04/20 05:46:42;;;;;;;0.60;0.60;;;;;;;14.06;97.59;99013.78;5025241;28;20396;-67
2023/04/20 05:49:08;;;;;;;0.63;0.63;;;;;;;14.03;98.79;99018.25;5027571;28;20279;-66
2023/04/20 05:51:35;;;;;;;0.63;0.63;;;;;;;14.05;100.00;99016.44;5017262;28;20236;-67
2023/04/20 05:54:02;;;;;;;0.60;0.60;;;;;;;14.12;98.81;99017.78;5025863;28;20213;-67
2023/04/20 05:56:29;;;;;;;0.50;0.50;;;;;;;14.31;100.00;99015.97;5017420;28;20224;-67
2023/04/20 05:58:58;;;;;;;0.40;0.40;;;;;;;14.59;99.56;99023.13;5019819;28;20205;-67
2023/04/20 06:01:26;;;;;;;0.70;0.70;;;;;;;14.91;98.73;99018.84;5024432;28;20206;-67
2023/04/20 06:03:52;;;;;;;0.50;0.50;;;;;;;15.15;97.42;99020.09;5021792;28;20257;-67
2023/04/20 06:06:19;;;;;;;0.50;0.50;;;;;;;15.39;94.27;99021.31;5029612;28;20225;-67
2023/04/20 06:08:46;;;;;;;0.50;0.50;;;;;;;15.54;93.73;99030.00;5028700;28;20222;-67
2023/04/20 06:11:13;;;;;;;0.57;0.57;;;;;;;15.55;92.39;99031.66;5032325;28;20201;-67
2023/04/20 06:13:39;;;;;;;0.50;0.50;;;;;;;15.69;93.38;99024.81;5032740;28;20197;-67
2023/04/20 06:16:09;;;;;;;0.70;0.70;;;;;;;15.77;91.78;99022.59;5033086;28;20263;-67
2023/04/20 06:18:36;;;;;;;0.50;0.50;;;;;;;15.84;91.82;99035.16;5031577;28;20228;-65
2023/04/20 06:21:04;;;;;;;0.50;0.50;;;;;;;16.05;91.80;99026.19;5033810;28;20208;-66
2023/04/20 06:23:30;;;;;;;0.40;0.40;;;;;;;16.24;90.45;99037.13;5032944;28;20204;-65
2023/04/20 06:25:57;;;;;;;0.53;0.53;;;;;;;16.42;90.98;99033.44;5031167;28;20709;-66
2023/04/20 06:28:24;;;;;;;0.50;0.50;;;;;;;16.53;90.09;99037.97;5033296;28;20213;-67
2023/04/20 06:30:51;;;;;;;0.97;0.97;;;;;;;16.56;89.46;99038.66;5031046;28;20211;-67
2023/04/20 06:33:19;;;;;;;0.60;0.60;;;;;;;16.62;90.82;99025.34;5032552;28;20686;-67
2023/04/20 06:35:46;;;;;;;0.70;0.70;;;;;;;16.95;91.31;99035.38;5028645;28;20636;-66
2023/04/20 06:38:12;;;;;;;0.73;0.73;;;;;;;17.27;90.92;99030.78;5032166;28;20224;-66
2023/04/20 06:40:39;;;;;;;0.60;0.60;;;;;;;17.40;86.16;99031.66;5032014;28;20654;-66
2023/04/20 06:43:06;;;;;;;0.40;0.40;;;;;;;17.27;85.60;99031.63;5032435;28;20209;-67
2023/04/20 06:45:33;;;;;;;0.60;0.60;;;;;;;17.14;86.40;99029.91;5032374;28;20209;-67
2023/04/20 06:48:00;;;;;;;1.10;1.10;;;;;;;17.07;86.26;99031.19;5032409;28;20205;-66
2023/04/20 06:50:28;;;;;;;0.50;0.50;;;;;;;17.05;85.38;99033.06;5032615;28;20330;-66
2023/04/20 06:52:55;;;;;;;0.60;0.60;;;;;;;16.89;85.63;99035.78;5032476;28;20201;-67
2023/04/20 06:55:22;;;;;;;0.40;0.40;;;;;;;16.93;85.11;99031.25;5031191;28;20607;-66
2023/04/20 06:57:48;;;;;;;0.93;0.93;;;;;;;16.90;86.76;99027.06;5032455;28;20197;-67
2023/04/20 07:00:16;;;;;;;1.23;1.23;;;;;;;17.03;86.75;99032.31;5030199;28;20200;-66
2023/04/20 07:02:44;;;;;;;1.03;1.03;;;;;;;17.21;86.17;99032.00;5033163;28;20206;-66
2023/04/20 07:05:11;;;;;;;0.37;0.37;;;;;;;17.27;87.29;99026.44;5032886;28;20566;-66
2023/04/20 07:07:39;;;;;;;0.50;0.50;;;;;;;17.36;84.62;99025.00;5033219;28;20597;-66
2023/04/20 07:10:08;;;;;;;0.70;0.70;;;;;;;17.47;84.49;99037.28;5032462;28;20924;-66
2023/04/20 07:12:36;;;;;;;0.73;0.73;;;;;;;17.59;85.30;99029.59;5032841;28;20289;-66
2023/04/20 07:15:04;;;;;;;0.60;0.60;;;;;;;17.64;84.23;99037.88;5032806;28;20197;-66
2023/04/20 07:17:31;;;;;;;0.70;0.70;;;;;;;17.91;83.19;99042.22;5032604;28;20232;-66
2023/04/20 07:20:06;;;;;;;0.50;0.50;;;;;;;18.12;85.24;99038.22;5032697;28;20204;-66
2023/04/20 07:22:32;;;;;;;0.53;0.53;;;;;;;18.22;82.96;99037.47;5032504;28;20608;-66
2023/04/20 07:25:02;;;;;;;0.50;0.50;;;;;;;18.03;81.06;99020.69;5031548;28;20204;-66
2023/04/20 07:27:29;;;;;;;0.50;0.50;;;;;;;18.13;79.51;99032.06;5032003;28;20298;-67
2023/04/20 07:29:56;;;;;;;0.50;0.50;;;;;;;18.04;80.29;99030.09;5032427;28;20214;-66
2023/04/20 07:32:23;;;;;;;0.50;0.50;;;;;;;17.87;80.22;99030.41;5032781;28;20205;-66
2023/04/20 07:34:50;;;;;;;0.50;0.50;;;;;;;18.02;82.27;99039.75;5032153;28;20208;-66
2023/04/20 07:37:17;;;;;;;0.50;0.50;;;;;;;17.78;82.65;99017.09;5032327;28;20551;-67
2023/04/20 07:39:44;;;;;;;0.50;0.50;;;;;;;17.92;81.42;99029.16;5032321;28;20204;-66
2023/04/20 07:42:12;;;;;;;0.50;0.50;;;;;;;18.22;80.45;99026.28;5032184;28;20201;-66
2023/04/20 07:44:38;;;;;;;0.40;0.40;;;;;;;18.24;83.47;99024.41;5031725;28;20197;-66
2023/04/20 07:47:05;;;;;;;0.50;0.50;;;;;;;18.48;81.62;99033.13;5031018;28;20205;-66
2023/04/20 07:49:36;;;;;;;0.40;0.40;;;;;;;18.58;79.25;99038.59;5031039;28;20229;-65
2023/04/20 07:52:03;;;;;;;0.53;0.53;;;;;;;18.63;77.96;99047.72;5030995;28;20291;-66
2023/04/20 07:54:31;;;;;;;0.40;0.40;;;;;;;18.82;79.78;99048.09;5030510;28;20241;-67
2023/04/20 07:56:57;;;;;;;0.67;0.67;;;;;;;18.76;78.47;99035.53;5031859;28;20252;-66
2023/04/20 07:59:26;;;;;;;0.50;0.50;;;;;;;18.71;76.73;99040.22;5031765;28;20198;-66
2023/04/20 08:01:55;;;;;;;0.80;0.80;;;;;;;18.78;78.90;99041.44;5031608;28;20259;-66
2023/04/20 08:04:22;;;;;;;0.50;0.50;;;;;;;18.59;79.32;99040.22;5031772;28;20213;-65
2023/04/20 08:06:49;;;;;;;0.87;0.87;;;;;;;18.54;79.13;99031.94;5017559;28;20253;-66
2023/04/20 08:09:16;;;;;;;0.50;0.50;;;;;;;18.48;77.44;99027.94;5020957;28;20218;-66
2023/04/20 08:11:45;;;;;;;0.50;0.50;;;;;;;18.60;80.13;99024.56;5018643;28;20288;-66
2023/04/20 08:14:11;;;;;;;0.70;0.70;;;;;;;18.83;80.27;99034.19;5026662;28;20252;-66
2023/04/20 08:16:39;;;;;;;0.60;0.60;;;;;;;19.01;78.69;99036.41;5025956;28;20720;-66
2023/04/20 08:19:09;;;;;;;0.97;0.97;;;;;;;19.12;76.42;99033.91;5023127;28;20194;-66
2023/04/20 08:21:35;;;;;;;0.30;0.30;;;;;;;19.11;78.13;99019.25;5023440;28;20280;-65
2023/04/20 08:24:02;;;;;;;0.60;0.60;;;;;;;19.06;75.21;99026.53;5021419;28;20543;-67
2023/04/20 08:26:32;;;;;;;0.50;0.50;;;;;;;19.20;76.31;99021.19;5024562;28;20210;-66
2023/04/20 08:28:59;;;;;;;0.50;0.50;;;;;;;19.31;75.66;99021.25;5014292;28;20215;-65
2023/04/20 08:31:26;;;;;;;0.37;0.37;;;;;;;19.42;77.57;99026.53;5012095;28;20244;-66
2023/04/20 08:33:54;;;;;;;0.40;0.40;;;;;;;19.54;73.38;99012.66;5011937;28;20209;-65
2023/04/20 08:36:21;;;;;;;0.90;0.90;;;;;;;19.55;73.27;99011.69;5012002;28;20203;-65
2023/04/20 08:38:54;;;;;;;0.43;0.43;;;;;;;19.64;74.88;99010.22;5011910;28;20208;-65
2023/04/20 08:41:21;;;;;;;0.43;0.43;;;;;;;19.76;75.86;99010.16;5012073;28;20205;-65
2023/04/20 08:43:49;;;;;;;0.53;0.53;;;;;;;19.85;76.70;99006.84;5011971;28;20239;-65
2023/04/20 08:46:17;;;;;;;0.40;0.40;;;;;;;19.93;76.82;99004.50;5012015;28;20695;-65
2023/04/20 08:48:46;;;;;;;0.50;0.50;;;;;;;20.15;76.32;99001.13;5011898;28;20212;-65
2023/04/20 08:51:15;;;;;;;0.50;0.50;;;;;;;20.16;75.14;99007.19;5011820;28;20219;-66
2023/04/20 08:53:42;;;;;;;0.50;0.50;;;;;;;20.28;75.40;99003.66;5011900;28;20305;-66
2023/04/20 08:56:09;;;;;;;0.83;0.83;;;;;;;20.38;75.12;99007.22;5011745;28;20210;-65
2023/04/20 08:58:37;;;;;;;0.40;0.40;;;;;;;20.32;70.42;99012.91;5011817;28;20216;-66
2023/04/20 09:01:04;;;;;;;0.43;0.43;;;;;;;19.92;71.38;99010.66;5011739;28;20684;-65
2023/04/20 09:03:33;;;;;;;0.50;0.50;;;;;;;20.09;74.68;98995.56;5012448;28;20209;-65
2023/04/20 09:05:59;;;;;;;0.50;0.50;;;;;;;20.09;70.96;98978.19;5011653;28;20229;-65
2023/04/20 09:08:35;;;;;;;0.40;0.40;;;;;;;20.13;70.43;98989.19;5011831;28;20210;-65
2023/04/20 09:11:02;;;;;;;0.43;0.43;;;;;;;20.33;70.65;99007.56;5011719;28;20278;-65
2023/04/20 09:13:29;;;;;;;0.60;0.60;;;;;;;20.51;74.01;98996.69;5011803;28;20221;-66
2023/04/20 09:15:55;;;;;;;0.60;0.60;;;;;;;20.62;72.13;98994.91;5011681;28;20247;-66
2023/04/20 09:18:23;;;;;;;0.40;0.40;;;;;;;21.00;76.17;98998.91;5011647;28;20206;-65
2023/04/20 09:20:50;;;;;;;0.63;0.63;;;;;;;20.71;69.88;99009.81;5031093;28;20204;-65
2023/04/20 09:23:18;;;;;;;0.60;0.60;;;;;;;20.54;67.80;98981.66;5031099;28;20264;-66
2023/04/20 09:25:51;;;;;;;0.50;0.50;;;;;;;20.86;69.17;99007.81;5031243;28;20204;-65
2023/04/20 09:28:19;;;;;;;0.50;0.50;;;;;;;20.91;67.10;99000.44;5031210;28;20209;-66
2023/04/20 09:30:47;;;;;;;0.47;0.47;;;;;;;21.00;65.73;98999.75;5026672;28;20225;-65
2023/04/20 09:33:15;;;;;;;0.40;0.40;;;;;;;20.92;66.95;98997.75;5011511;28;20304;-65
2023/04/20 09:35:43;;;;;;;0.40;0.40;;;;;;;20.79;66.60;98980.56;5011577;28;20674;-65
2023/04/20 09:38:11;;;;;;;0.40;0.40;;;;;;;20.74;68.17;98991.34;5011378;28;20704;-65
2023/04/20 09:40:37;;;;;;;0.50;0.50;;;;;;;20.82;68.27;98991.59;5021876;28;20198;-65
2023/04/20 09:43:11;;;;;;;0.40;0.40;;;;;;;20.97;68.91;98993.94;5031113;28;20210;-65
2023/04/20 09:45:59;;;;;;;1.20;1.20;;;;;;;21.06;65.77;98993.22;5031171;28;20216;-65
2023/04/20 09:48:25;;;;;;;0.60;0.60;;;;;;;21.13;65.40;98992.63;5034407;28;20203;-65
2023/04/20 09:50:53;;;;;;;0.50;0.50;;;;;;;21.09;65.29;98995.56;5034525;28;20217;-66
2023/04/20 09:53:20;;;;;;;0.30;0.30;;;;;;;21.26;67.48;98989.88;5034516;28;20209;-66
2023/04/20 09:55:48;;;;;;;0.97;0.97;;;;;;;21.54;69.94;98986.69;5034689;28;20229;-65
2023/04/20 09:58:18;;;;;;;0.30;0.30;;;;;;;21.78;67.50;98979.44;5025864;28;20289;-65
2023/04/20 10:00:45;;;;;;;1.13;0.87;;;;;;;21.87;62.62;98994.34;5033152;28;20758;-66
2023/04/20 10:03:12;;;;;;;0.40;0.40;;;;;;;21.93;64.23;98973.00;5034428;28;20212;-66
2023/04/20 10:05:39;;;;;;;0.30;0.30;;;;;;;21.95;65.93;98973.69;5031387;28;20221;-66
2023/04/20 10:08:07;;;;;;;0.30;0.30;;;;;;;21.91;62.74;98964.47;5034346;28;20286;-66
2023/04/20 10:10:44;;;;;;;0.30;0.30;;;;;;;21.79;63.51;98962.84;5018206;28;20280;-65
2023/04/20 10:13:11;;;;;;;0.37;0.37;;;;;;;21.65;61.34;98965.75;5014609;28;20206;-65
2023/04/20 10:15:40;;;;;;;0.30;0.30;;;;;;;21.27;62.63;98962.84;5022305;28;20634;-65
2023/04/20 10:18:17;;;;;;;0.40;0.40;;;;;;;21.05;62.35;98970.69;5034165;28;20205;-65
2023/04/20 10:20:44;;;;;;;0.60;0.60;;;;;;;20.89;64.22;98956.28;5034113;28;20236;-65
2023/04/20 10:23:13;;;;;;;0.50;0.50;;;;;;;20.65;63.82;98959.97;5034192;28;20582;-65
2023/04/20 10:25:40;;;;;;;0.70;0.70;;;;;;;20.53;64.40;98958.34;5033951;28;20644;-65
2023/04/20 10:28:09;;;;;;;0.40;0.40;;;;;;;20.35;64.68;98955.41;5034224;28;20216;-65
2023/04/20 10:30:37;;;;;;;0.43;0.43;;;;;;;20.35;67.40;98953.63;5033739;28;20281;-65
2023/04/20 10:33:07;;;;;;;0.40;0.40;;;;;;;20.26;66.20;98956.03;5034047;28;20214;-64
2023/04/20 10:35:48;;;;;;;0.30;0.30;;;;;;;20.25;65.88;98951.81;5022662;28;20676;-66
2023/04/20 10:38:16;;;;;;;0.87;0.60;;;;;;;20.11;65.52;98962.44;5015754;28;20626;-65
2023/04/20 10:40:42;;;;;;;0.47;0.47;;;;;;;20.03;65.03;98965.63;5014013;28;20248;-65
2023/04/20 10:43:20;;;;;;;0.53;0.53;;;;;;;19.89;70.63;98960.63;5032430;28;20201;-65
2023/04/20 10:45:47;;;;;;;0.40;0.40;;;;;;;19.59;70.38;98962.91;5033753;28;20293;-66
2023/04/20 10:48:15;;;;;;;0.50;0.50;;;;;;;19.17;73.13;98964.22;5033794;28;20211;-66
2023/04/20 10:50:42;;;;;;;0.53;0.53;;;;;;;19.00;71.91;98967.22;5033570;28;20219;-65
2023/04/20 10:53:19;;;;;;;0.50;0.50;;;;;;;19.16;72.21;98957.41;5025441;28;20290;-65
2023/04/20 10:55:46;;;;;;;0.90;0.90;;;;;;;19.31;75.10;98953.69;5033524;28;20282;-65
2023/04/20 10:58:23;;;;;;;0.40;0.40;;;;;;;19.35;79.57;98936.94;5032161;28;20628;-65
2023/04/20 11:01:01;;;;;;;0.63;0.63;;;;;;;19.40;79.52;98950.44;5033502;28;20709;-65
2023/04/20 11:03:30;;;;;;;0.60;0.60;;;;;;;19.44;79.60;98946.69;5033253;28;20281;-65
2023/04/20 11:06:00;;;;;;;0.50;0.50;;;;;;;19.37;81.26;98953.22;5033165;28;20247;-65
2023/04/20 11:08:37;;;;;;;0.47;0.47;;;;;;;19.38;80.83;98947.09;5022680;28;20691;-65
2023/04/20 11:11:05;;;;;;;0.40;0.40;;;;;;;19.42;80.95;98937.34;5013376;28;20233;-65
2023/04/20 11:13:32;;;;;;;0.40;0.40;;;;;;;19.36;79.27;98943.75;5024447;28;20202;-65
2023/04/20 11:15:59;;;;;;;0.47;0.47;;;;;;;19.27;75.77;98947.03;5033084;28;20211;-65
2023/04/20 11:18:25;;;;;;;0.40;0.40;;;;;;;19.17;77.34;98938.25;5022956;28;20226;-65
2023/04/20 11:20:55;;;;;;;0.83;0.83;;;;;;;19.06;75.39;98933.00;5013999;28;20202;-65
2023/04/20 11:23:23;;;;;;;0.60;0.60;;;;;;;18.97;74.78;98937.09;5013118;28;20212;-64
2023/04/20 11:25:52;;;;;;;1.60;1.00;;;;;;;18.91;74.24;98934.09;5013246;28;20682;-65
2023/04/20 11:28:19;;;;;;;0.50;0.50;;;;;;;18.84;74.04;98933.69;5013038;28;20304;-64
2023/04/20 11:30:46;;;;;;;0.53;0.53;;;;;;;18.86;74.04;98935.28;5013005;28;20229;-65